sensor_id;sensor_type;location;lat;lon;timestamp;pressure;altitude;pressure_sealevel;temperature;humidity
13974;BME280;7060;43.770;4.008;2024-01-16T00:00:36;100498.06;;;3.50;69.62
13974;BME280;7060;43.770;4.008;2024-01-16T00:03:05;100496.69;;;3.45;69.79
13974;BME280;7060;43.770;4.008;2024-01-16T00:05:36;100494.78;;;3.47;70.30
13974;BME280;7060;43.770;4.008;2024-01-16T00:08:05;100493.75;;;3.49;69.88
13974;BME280;7060;43.770;4.008;2024-01-16T00:10:34;100492.47;;;3.42;70.32
13974;BME280;7060;43.770;4.008;2024-01-16T00:13:03;100492.81;;;3.37;70.14
13974;BME280;7060;43.770;4.008;2024-01-16T00:15:32;100486.34;;;3.41;70.48
13974;BME280;7060;43.770;4.008;2024-01-16T00:18:01;100477.91;;;3.36;70.12
13974;BME280;7060;43.770;4.008;2024-01-16T00:20:30;100466.91;;;3.30;71.17
13974;BME280;7060;43.770;4.008;2024-01-16T00:22:59;100462.91;;;3.37;70.99
13974;BME280;7060;43.770;4.008;2024-01-16T00:25:28;100462.53;;;3.41;70.19
13974;BME280;7060;43.770;4.008;2024-01-16T00:27:57;100460.97;;;3.52;70.44
13974;BME280;7060;43.770;4.008;2024-01-16T00:30:26;100465.50;;;3.62;71.13
13974;BME280;7060;43.770;4.008;2024-01-16T00:32:55;100455.44;;;3.67;70.37
13974;BME280;7060;43.770;4.008;2024-01-16T00:35:24;100455.25;;;3.58;70.11
13974;BME280;7060;43.770;4.008;2024-01-16T00:37:53;100455.38;;;3.56;71.11
13974;BME280;7060;43.770;4.008;2024-01-16T00:40:23;100452.72;;;3.56;70.39
13974;BME280;7060;43.770;4.008;2024-01-16T00:42:52;100463.50;;;3.53;69.87
13974;BME280;7060;43.770;4.008;2024-01-16T00:45:21;100471.53;;;3.52;69.90
13974;BME280;7060;43.770;4.008;2024-01-16T00:47:50;100468.47;;;3.45;69.79
13974;BME280;7060;43.770;4.008;2024-01-16T00:50:19;100466.50;;;3.36;70.27
13974;BME280;7060;43.770;4.008;2024-01-16T00:52:48;100462.38;;;3.32;70.32
13974;BME280;7060;43.770;4.008;2024-01-16T00:55:17;100463.41;;;3.29;70.61
13974;BME280;7060;43.770;4.008;2024-01-16T00:57:47;100471.56;;;3.26;71.05
13974;BME280;7060;43.770;4.008;2024-01-16T01:00:16;100459.50;;;3.22;70.34
13974;BME280;7060;43.770;4.008;2024-01-16T01:02:45;100462.66;;;3.15;70.39
13974;BME280;7060;43.770;4.008;2024-01-16T01:05:14;100471.97;;;3.20;70.85
13974;BME280;7060;43.770;4.008;2024-01-16T01:07:43;100472.59;;;3.24;71.10
13974;BME280;7060;43.770;4.008;2024-01-16T01:10:12;100481.91;;;3.29;71.38
13974;BME280;7060;43.770;4.008;2024-01-16T01:12:41;100480.44;;;3.25;70.98
13974;BME280;7060;43.770;4.008;2024-01-16T01:15:12;100494.06;;;3.32;71.01
13974;BME280;7060;43.770;4.008;2024-01-16T01:17:41;100492.88;;;3.23;71.52
13974;BME280;7060;43.770;4.008;2024-01-16T01:20:10;100494.16;;;3.18;71.10
13974;BME280;7060;43.770;4.008;2024-01-16T01:22:40;100489.31;;;3.24;71.42
13974;BME280;7060;43.770;4.008;2024-01-16T01:25:10;100476.41;;;3.32;71.44
13974;BME280;7060;43.770;4.008;2024-01-16T01:27:39;100477.13;;;3.47;72.41
13974;BME280;7060;43.770;4.008;2024-01-16T01:30:09;100477.88;;;3.62;73.02
13974;BME280;7060;43.770;4.008;2024-01-16T01:32:40;100474.25;;;3.75;73.19
13974;BME280;7060;43.770;4.008;2024-01-16T01:35:09;100479.00;;;3.83;73.04
13974;BME280;7060;43.770;4.008;2024-01-16T01:37:38;100478.47;;;3.91;72.56
13974;BME280;7060;43.770;4.008;2024-01-16T01:40:08;100461.50;;;3.93;72.45
13974;BME280;7060;43.770;4.008;2024-01-16T01:42:40;100454.78;;;3.89;72.99
13974;BME280;7060;43.770;4.008;2024-01-16T01:45:10;100461.75;;;3.90;72.99
13974;BME280;7060;43.770;4.008;2024-01-16T01:47:41;100470.06;;;3.97;73.47
13974;BME280;7060;43.770;4.008;2024-01-16T01:50:11;100470.06;;;3.97;72.85
13974;BME280;7060;43.770;4.008;2024-01-16T01:52:41;100464.44;;;4.01;73.43
13974;BME280;7060;43.770;4.008;2024-01-16T01:55:11;100471.94;;;4.07;74.06
13974;BME280;7060;43.770;4.008;2024-01-16T01:57:42;100473.31;;;4.13;73.97
13974;BME280;7060;43.770;4.008;2024-01-16T02:00:12;100475.38;;;4.21;73.48
13974;BME280;7060;43.770;4.008;2024-01-16T02:02:43;100479.28;;;4.28;73.65
13974;BME280;7060;43.770;4.008;2024-01-16T02:05:12;100470.06;;;4.33;73.30
13974;BME280;7060;43.770;4.008;2024-01-16T02:07:41;100474.91;;;4.39;72.54
13974;BME280;7060;43.770;4.008;2024-01-16T02:10:10;100481.56;;;4.45;72.41
13974;BME280;7060;43.770;4.008;2024-01-16T02:12:39;100479.38;;;4.50;72.30
13974;BME280;7060;43.770;4.008;2024-01-16T02:15:08;100480.13;;;4.52;71.82
13974;BME280;7060;43.770;4.008;2024-01-16T02:17:38;100473.97;;;4.52;72.25
13974;BME280;7060;43.770;4.008;2024-01-16T02:20:10;100469.53;;;4.52;72.16
13974;BME280;7060;43.770;4.008;2024-01-16T02:22:40;100454.19;;;4.33;71.63
13974;BME280;7060;43.770;4.008;2024-01-16T02:25:13;100480.31;;;4.38;72.11
13974;BME280;7060;43.770;4.008;2024-01-16T02:27:43;100487.50;;;4.36;71.60
13974;BME280;7060;43.770;4.008;2024-01-16T02:30:12;100487.50;;;4.36;71.70
13974;BME280;7060;43.770;4.008;2024-01-16T02:32:41;100482.88;;;4.27;71.29
13974;BME280;7060;43.770;4.008;2024-01-16T02:35:10;100485.97;;;4.21;71.60
13974;BME280;7060;43.770;4.008;2024-01-16T02:37:39;100489.81;;;4.17;71.06
13974;BME280;7060;43.770;4.008;2024-01-16T02:40:08;100366.78;;;3.38;71.43
13974;BME280;7060;43.770;4.008;2024-01-16T02:42:39;100480.09;;;4.04;71.35
13974;BME280;7060;43.770;4.008;2024-01-16T02:45:09;100470.59;;;4.02;71.49
13974;BME280;7060;43.770;4.008;2024-01-16T02:47:38;100473.44;;;3.99;70.99
13974;BME280;7060;43.770;4.008;2024-01-16T02:50:07;100483.91;;;4.00;71.09
13974;BME280;7060;43.770;4.008;2024-01-16T02:52:37;100481.38;;;3.99;71.13
13974;BME280;7060;43.770;4.008;2024-01-16T02:55:07;100475.03;;;4.01;71.39
13974;BME280;7060;43.770;4.008;2024-01-16T02:57:38;100483.69;;;4.03;72.15
13974;BME280;7060;43.770;4.008;2024-01-16T03:00:08;100494.06;;;4.06;71.79
13974;BME280;7060;43.770;4.008;2024-01-16T03:02:37;100488.34;;;4.13;71.46
13974;BME280;7060;43.770;4.008;2024-01-16T03:05:07;100493.06;;;4.20;71.22
13974;BME280;7060;43.770;4.008;2024-01-16T03:07:36;100494.19;;;4.29;71.16
13974;BME280;7060;43.770;4.008;2024-01-16T03:10:06;100491.84;;;4.37;71.46
13974;BME280;7060;43.770;4.008;2024-01-16T03:12:35;100493.44;;;4.39;70.84
13974;BME280;7060;43.770;4.008;2024-01-16T03:15:06;100484.31;;;4.43;71.11
13974;BME280;7060;43.770;4.008;2024-01-16T03:17:35;100468.31;;;4.45;70.69
13974;BME280;7060;43.770;4.008;2024-01-16T03:20:04;100468.66;;;4.40;71.10
13974;BME280;7060;43.770;4.008;2024-01-16T03:22:34;100464.66;;;4.35;70.85
13974;BME280;7060;43.770;4.008;2024-01-16T03:25:03;100457.78;;;4.32;70.79
13974;BME280;7060;43.770;4.008;2024-01-16T03:27:32;100461.38;;;4.31;70.67
13974;BME280;7060;43.770;4.008;2024-01-16T03:30:02;100460.94;;;4.37;70.74
13974;BME280;7060;43.770;4.008;2024-01-16T03:32:33;100461.91;;;4.36;70.38
13974;BME280;7060;43.770;4.008;2024-01-16T03:35:02;100444.16;;;4.26;70.16
13974;BME280;7060;43.770;4.008;2024-01-16T03:37:31;100452.31;;;4.23;70.52
13974;BME280;7060;43.770;4.008;2024-01-16T03:40:00;100446.41;;;4.19;70.81
13974;BME280;7060;43.770;4.008;2024-01-16T03:42:29;100460.59;;;4.18;70.27
13974;BME280;7060;43.770;4.008;2024-01-16T03:44:58;100453.38;;;4.20;70.67
13974;BME280;7060;43.770;4.008;2024-01-16T03:47:27;100451.47;;;4.22;70.43
13974;BME280;7060;43.770;4.008;2024-01-16T03:49:57;100448.69;;;4.24;69.57
13974;BME280;7060;43.770;4.008;2024-01-16T03:52:26;100449.19;;;4.18;69.17
13974;BME280;7060;43.770;4.008;2024-01-16T03:58:01;100424.94;;;3.87;69.71
13974;BME280;7060;43.770;4.008;2024-01-16T04:00:30;100428.25;;;3.78;70.26
13974;BME280;7060;43.770;4.008;2024-01-16T04:03:00;100425.91;;;3.73;70.69
13974;BME280;7060;43.770;4.008;2024-01-16T04:05:30;100414.72;;;3.70;70.47
13974;BME280;7060;43.770;4.008;2024-01-16T04:07:59;100420.75;;;3.72;70.71
13974;BME280;7060;43.770;4.008;2024-01-16T04:10:28;100441.47;;;3.78;69.82
13974;BME280;7060;43.770;4.008;2024-01-16T04:13:00;100447.78;;;3.88;69.95
13974;BME280;7060;43.770;4.008;2024-01-16T04:15:29;100442.50;;;3.88;69.42
13974;BME280;7060;43.770;4.008;2024-01-16T04:17:58;100439.75;;;3.90;68.93
13974;BME280;7060;43.770;4.008;2024-01-16T04:20:27;100440.47;;;3.92;68.80
13974;BME280;7060;43.770;4.008;2024-01-16T04:22:57;100449.97;;;3.94;68.70
13974;BME280;7060;43.770;4.008;2024-01-16T04:25:26;100432.31;;;3.95;69.17
13974;BME280;7060;43.770;4.008;2024-01-16T04:27:55;100436.53;;;3.97;69.13
13974;BME280;7060;43.770;4.008;2024-01-16T04:30:26;100441.38;;;4.03;69.03
13974;BME280;7060;43.770;4.008;2024-01-16T04:32:55;100432.38;;;4.06;68.75
13974;BME280;7060;43.770;4.008;2024-01-16T04:35:24;100432.50;;;4.04;68.41
13974;BME280;7060;43.770;4.008;2024-01-16T04:37:53;100417.88;;;4.12;68.84
13974;BME280;7060;43.770;4.008;2024-01-16T04:40:24;100412.56;;;4.12;68.43
13974;BME280;7060;43.770;4.008;2024-01-16T04:42:52;100390.56;;;4.11;69.03
13974;BME280;7060;43.770;4.008;2024-01-16T04:45:21;100391.41;;;4.12;68.46
13974;BME280;7060;43.770;4.008;2024-01-16T04:47:50;100386.63;;;4.17;68.57
13974;BME280;7060;43.770;4.008;2024-01-16T04:50:19;100391.19;;;4.15;68.95
13974;BME280;7060;43.770;4.008;2024-01-16T04:52:49;100391.63;;;4.08;68.15
13974;BME280;7060;43.770;4.008;2024-01-16T04:55:20;100397.78;;;4.09;68.58
13974;BME280;7060;43.770;4.008;2024-01-16T04:57:50;100392.25;;;4.12;67.86
13974;BME280;7060;43.770;4.008;2024-01-16T05:00:19;100402.72;;;4.14;67.73
13974;BME280;7060;43.770;4.008;2024-01-16T05:02:48;100404.94;;;4.20;67.38
13974;BME280;7060;43.770;4.008;2024-01-16T05:05:19;100409.00;;;4.24;67.61
13974;BME280;7060;43.770;4.008;2024-01-16T05:07:48;100402.53;;;4.28;67.72
13974;BME280;7060;43.770;4.008;2024-01-16T05:10:17;100414.59;;;4.32;67.63
13974;BME280;7060;43.770;4.008;2024-01-16T05:12:45;100426.63;;;4.36;67.62
13974;BME280;7060;43.770;4.008;2024-01-16T05:15:17;100423.03;;;4.37;67.01
13974;BME280;7060;43.770;4.008;2024-01-16T05:17:45;100412.44;;;4.37;67.61
13974;BME280;7060;43.770;4.008;2024-01-16T05:20:15;100418.97;;;4.44;67.11
13974;BME280;7060;43.770;4.008;2024-01-16T05:22:43;100420.06;;;4.41;67.95
13974;BME280;7060;43.770;4.008;2024-01-16T05:25:12;100422.47;;;4.44;67.28
13974;BME280;7060;43.770;4.008;2024-01-16T05:27:42;100418.97;;;4.44;67.83
13974;BME280;7060;43.770;4.008;2024-01-16T05:30:12;100413.44;;;4.47;67.88
13974;BME280;7060;43.770;4.008;2024-01-16T05:32:42;100412.38;;;4.50;67.62
13974;BME280;7060;43.770;4.008;2024-01-16T05:35:11;100421.88;;;4.52;67.61
13974;BME280;7060;43.770;4.008;2024-01-16T05:37:40;100419.22;;;4.52;68.06
13974;BME280;7060;43.770;4.008;2024-01-16T05:40:10;100422.38;;;4.57;67.82
13974;BME280;7060;43.770;4.008;2024-01-16T05:42:39;100414.91;;;4.51;67.47
13974;BME280;7060;43.770;4.008;2024-01-16T05:45:09;100433.59;;;4.61;67.24
13974;BME280;7060;43.770;4.008;2024-01-16T05:47:37;100430.84;;;4.62;66.90
13974;BME280;7060;43.770;4.008;2024-01-16T05:50:08;100434.84;;;4.68;66.73
13974;BME280;7060;43.770;4.008;2024-01-16T05:52:38;100431.00;;;4.72;66.61
13974;BME280;7060;43.770;4.008;2024-01-16T05:55:11;100428.72;;;4.78;66.30
13974;BME280;7060;43.770;4.008;2024-01-16T05:57:40;100440.75;;;4.83;66.63
13974;BME280;7060;43.770;4.008;2024-01-16T06:00:11;100433.03;;;4.79;65.80
13974;BME280;7060;43.770;4.008;2024-01-16T06:02:41;100436.31;;;4.83;65.76
13974;BME280;7060;43.770;4.008;2024-01-16T06:05:11;100432.66;;;4.97;65.65
13974;BME280;7060;43.770;4.008;2024-01-16T06:07:40;100441.19;;;4.89;65.25
13974;BME280;7060;43.770;4.008;2024-01-16T06:10:11;100435.88;;;4.89;65.21
13974;BME280;7060;43.770;4.008;2024-01-16T06:12:41;100435.22;;;4.86;64.34
13974;BME280;7060;43.770;4.008;2024-01-16T06:15:09;100436.19;;;4.85;64.03
13974;BME280;7060;43.770;4.008;2024-01-16T06:17:40;100443.06;;;4.87;63.60
13974;BME280;7060;43.770;4.008;2024-01-16T06:20:11;100438.41;;;4.91;63.76
13974;BME280;7060;43.770;4.008;2024-01-16T06:22:40;100435.88;;;4.89;63.58
13974;BME280;7060;43.770;4.008;2024-01-16T06:25:09;100439.75;;;4.96;63.65
13974;BME280;7060;43.770;4.008;2024-01-16T06:27:38;100436.03;;;4.99;63.98
13974;BME280;7060;43.770;4.008;2024-01-16T06:30:08;100440.25;;;5.01;64.06
13974;BME280;7060;43.770;4.008;2024-01-16T06:32:37;100387.19;;;4.79;64.42
13974;BME280;7060;43.770;4.008;2024-01-16T06:35:07;100419.03;;;4.90;64.53
13974;BME280;7060;43.770;4.008;2024-01-16T06:37:38;100419.41;;;4.97;64.85
13974;BME280;7060;43.770;4.008;2024-01-16T06:40:08;100430.34;;;4.92;64.86
13974;BME280;7060;43.770;4.008;2024-01-16T06:42:37;100419.34;;;4.86;64.56
13974;BME280;7060;43.770;4.008;2024-01-16T06:45:07;100429.09;;;4.85;65.38
13974;BME280;7060;43.770;4.008;2024-01-16T06:47:36;100431.00;;;4.83;65.26
13974;BME280;7060;43.770;4.008;2024-01-16T06:50:06;100429.94;;;4.86;65.36
13974;BME280;7060;43.770;4.008;2024-01-16T06:52:35;100437.03;;;4.85;65.62
13974;BME280;7060;43.770;4.008;2024-01-16T06:55:06;100444.13;;;4.85;65.78
13974;BME280;7060;43.770;4.008;2024-01-16T06:57:35;100451.13;;;4.86;66.35
13974;BME280;7060;43.770;4.008;2024-01-16T07:00:05;100444.13;;;4.85;65.49
13974;BME280;7060;43.770;4.008;2024-01-16T07:02:35;100447.25;;;4.78;65.33
13974;BME280;7060;43.770;4.008;2024-01-16T07:05:04;100460.72;;;4.75;65.17
13974;BME280;7060;43.770;4.008;2024-01-16T07:07:33;100464.56;;;4.71;65.08
13974;BME280;7060;43.770;4.008;2024-01-16T07:10:03;100464.09;;;4.77;65.18
13974;BME280;7060;43.770;4.008;2024-01-16T07:12:36;100443.63;;;4.68;65.00
13974;BME280;7060;43.770;4.008;2024-01-16T07:15:06;100462.19;;;4.79;65.58
13974;BME280;7060;43.770;4.008;2024-01-16T07:17:35;100455.56;;;4.74;66.41
13974;BME280;7060;43.770;4.008;2024-01-16T07:20:05;100462.66;;;4.73;65.97
13974;BME280;7060;43.770;4.008;2024-01-16T07:22:37;100336.50;;;3.91;66.88
13974;BME280;7060;43.770;4.008;2024-01-16T07:25:07;100460.19;;;4.59;66.60
13974;BME280;7060;43.770;4.008;2024-01-16T07:27:38;100474.59;;;4.55;66.36
13974;BME280;7060;43.770;4.008;2024-01-16T07:30:07;100477.38;;;4.54;66.03
13974;BME280;7060;43.770;4.008;2024-01-16T07:32:37;100471.22;;;4.53;66.19
13974;BME280;7060;43.770;4.008;2024-01-16T07:35:06;100481.81;;;4.53;65.61
13974;BME280;7060;43.770;4.008;2024-01-16T07:37:35;100493.34;;;4.52;65.63
13974;BME280;7060;43.770;4.008;2024-01-16T07:40:05;100497.69;;;4.53;65.61
13974;BME280;7060;43.770;4.008;2024-01-16T07:42:38;100497.38;;;4.58;65.74
13974;BME280;7060;43.770;4.008;2024-01-16T07:45:07;100494.50;;;4.61;65.76
13974;BME280;7060;43.770;4.008;2024-01-16T07:47:38;100494.72;;;4.58;65.10
13974;BME280;7060;43.770;4.008;2024-01-16T07:50:07;100496.84;;;4.53;65.50
13974;BME280;7060;43.770;4.008;2024-01-16T07:52:37;100505.41;;;4.56;65.36
13974;BME280;7060;43.770;4.008;2024-01-16T07:55:06;100509.53;;;4.60;64.81
13974;BME280;7060;43.770;4.008;2024-01-16T07:57:35;100518.22;;;4.62;64.68
13974;BME280;7060;43.770;4.008;2024-01-16T08:00:07;100517.38;;;4.62;64.35
13974;BME280;7060;43.770;4.008;2024-01-16T08:02:39;100516.97;;;4.55;64.21
13974;BME280;7060;43.770;4.008;2024-01-16T08:05:09;100512.50;;;4.56;64.11
13974;BME280;7060;43.770;4.008;2024-01-16T08:07:38;100524.41;;;4.50;64.44
13974;BME280;7060;43.770;4.008;2024-01-16T08:10:08;100518.63;;;4.45;64.17
13974;BME280;7060;43.770;4.008;2024-01-16T08:12:38;100533.69;;;4.56;63.94
13974;BME280;7060;43.770;4.008;2024-01-16T08:15:09;100523.84;;;4.58;63.85
13974;BME280;7060;43.770;4.008;2024-01-16T08:17:47;100529.34;;;4.55;64.01
13974;BME280;7060;43.770;4.008;2024-01-16T08:20:16;100545.66;;;4.61;64.62
13974;BME280;7060;43.770;4.008;2024-01-16T08:22:45;100544.91;;;4.59;64.99
13974;BME280;7060;43.770;4.008;2024-01-16T08:25:14;100550.22;;;4.59;64.73
13974;BME280;7060;43.770;4.008;2024-01-16T08:27:43;100554.88;;;4.56;64.63
13974;BME280;7060;43.770;4.008;2024-01-16T08:30:12;100571.59;;;4.56;65.21
13974;BME280;7060;43.770;4.008;2024-01-16T08:32:41;100567.91;;;4.59;65.47
13974;BME280;7060;43.770;4.008;2024-01-16T08:35:12;100568.63;;;4.61;65.49
13974;BME280;7060;43.770;4.008;2024-01-16T08:37:41;100577.81;;;4.68;65.67
13974;BME280;7060;43.770;4.008;2024-01-16T08:40:11;100573.16;;;4.71;65.18
13974;BME280;7060;43.770;4.008;2024-01-16T08:42:40;100567.59;;;4.74;65.15
13974;BME280;7060;43.770;4.008;2024-01-16T08:45:09;100562.72;;;5.40;63.71
13974;BME280;7060;43.770;4.008;2024-01-16T08:47:40;100559.22;;;5.04;64.95
13974;BME280;7060;43.770;4.008;2024-01-16T08:50:09;100564.84;;;4.89;65.32
13974;BME280;7060;43.770;4.008;2024-01-16T08:52:39;100559.31;;;4.92;65.15
13974;BME280;7060;43.770;4.008;2024-01-16T08:55:09;100566.31;;;4.93;65.59
13974;BME280;7060;43.770;4.008;2024-01-16T08:57:38;100566.41;;;4.91;65.36
13974;BME280;7060;43.770;4.008;2024-01-16T09:00:07;100541.25;;;4.73;65.42
13974;BME280;7060;43.770;4.008;2024-01-16T09:02:36;100560.69;;;4.85;66.07
13974;BME280;7060;43.770;4.008;2024-01-16T09:05:05;100570.75;;;4.79;66.59
13974;BME280;7060;43.770;4.008;2024-01-16T09:07:35;100566.66;;;4.75;66.83
13974;BME280;7060;43.770;4.008;2024-01-16T09:10:06;100565.69;;;4.76;67.26
13974;BME280;7060;43.770;4.008;2024-01-16T09:12:35;100569.44;;;4.74;67.44
13974;BME280;7060;43.770;4.008;2024-01-16T09:15:05;100574.75;;;4.74;67.28
13974;BME280;7060;43.770;4.008;2024-01-16T09:17:34;100581.59;;;4.76;67.97
13974;BME280;7060;43.770;4.008;2024-01-16T09:20:04;100583.06;;;4.81;67.66
13974;BME280;7060;43.770;4.008;2024-01-16T09:22:34;100585.47;;;4.84;68.03
13974;BME280;7060;43.770;4.008;2024-01-16T09:25:05;100581.88;;;4.85;68.10
13974;BME280;7060;43.770;4.008;2024-01-16T09:27:34;100583.56;;;4.86;68.16
13974;BME280;7060;43.770;4.008;2024-01-16T09:30:04;100581.47;;;4.91;68.21
13974;BME280;7060;43.770;4.008;2024-01-16T09:32:35;100576.34;;;4.88;68.17
13974;BME280;7060;43.770;4.008;2024-01-16T09:35:05;100573.63;;;4.76;68.85
13974;BME280;7060;43.770;4.008;2024-01-16T09:37:36;100575.31;;;4.77;69.07
13974;BME280;7060;43.770;4.008;2024-01-16T09:40:09;100574.16;;;4.82;69.00
13974;BME280;7060;43.770;4.008;2024-01-16T09:42:38;100565.69;;;4.76;68.91
13974;BME280;7060;43.770;4.008;2024-01-16T09:45:09;100563.78;;;4.78;69.21
13974;BME280;7060;43.770;4.008;2024-01-16T09:47:38;100562.38;;;4.86;69.61
13974;BME280;7060;43.770;4.008;2024-01-16T09:50:07;100573.91;;;4.97;69.74
13974;BME280;7060;43.770;4.008;2024-01-16T09:52:38;100576.97;;;5.15;69.53
13974;BME280;7060;43.770;4.008;2024-01-16T09:55:08;100567.16;;;5.28;68.89
13974;BME280;7060;43.770;4.008;2024-01-16T09:57:39;100559.34;;;5.38;69.06
13974;BME280;7060;43.770;4.008;2024-01-16T10:00:10;100546.34;;;5.46;68.92
13974;BME280;7060;43.770;4.008;2024-01-16T10:02:40;100555.66;;;5.63;68.66
13974;BME280;7060;43.770;4.008;2024-01-16T10:05:11;100560.59;;;5.67;67.74
13974;BME280;7060;43.770;4.008;2024-01-16T10:07:41;100554.06;;;5.60;67.19
13974;BME280;7060;43.770;4.008;2024-01-16T10:10:13;100549.38;;;5.64;67.03
13974;BME280;7060;43.770;4.008;2024-01-16T10:12:53;100522.75;;;5.54;66.53
13974;BME280;7060;43.770;4.008;2024-01-16T10:15:23;100558.94;;;5.77;66.23
13974;BME280;7060;43.770;4.008;2024-01-16T10:17:52;100544.94;;;5.87;66.33
13974;BME280;7060;43.770;4.008;2024-01-16T10:20:32;100543.38;;;6.06;66.08
13974;BME280;7060;43.770;4.008;2024-01-16T10:23:02;100547.22;;;6.13;65.76
13974;BME280;7060;43.770;4.008;2024-01-16T10:25:33;100554.34;;;6.24;65.84
13974;BME280;7060;43.770;4.008;2024-01-16T10:28:05;100552.75;;;6.33;66.48
13974;BME280;7060;43.770;4.008;2024-01-16T10:30:37;100539.31;;;6.45;66.68
13974;BME280;7060;43.770;4.008;2024-01-16T10:33:13;100510.75;;;6.38;65.60
13974;BME280;7060;43.770;4.008;2024-01-16T10:35:44;100546.44;;;6.56;65.50
13974;BME280;7060;43.770;4.008;2024-01-16T10:38:20;100551.63;;;6.58;64.99
13974;BME280;7060;43.770;4.008;2024-01-16T10:41:08;100536.53;;;6.58;64.97
13974;BME280;7060;43.770;4.008;2024-01-16T10:43:37;100546.91;;;6.61;65.05
13974;BME280;7060;43.770;4.008;2024-01-16T10:46:12;100549.38;;;6.74;64.73
13974;BME280;7060;43.770;4.008;2024-01-16T10:48:43;100532.94;;;6.80;64.16
13974;BME280;7060;43.770;4.008;2024-01-16T10:51:14;100524.34;;;6.88;64.30
13974;BME280;7060;43.770;4.008;2024-01-16T10:53:44;100524.41;;;6.97;63.74
13974;BME280;7060;43.770;4.008;2024-01-16T10:56:17;100528.59;;;7.11;63.79
13974;BME280;7060;43.770;4.008;2024-01-16T10:58:51;100525.69;;;7.14;62.79
13974;BME280;7060;43.770;4.008;2024-01-16T11:01:24;100519.66;;;7.12;62.02
13974;BME280;7060;43.770;4.008;2024-01-16T11:03:55;100512.84;;;7.19;62.15
13974;BME280;7060;43.770;4.008;2024-01-16T11:06:26;100512.19;;;7.27;62.92
13974;BME280;7060;43.770;4.008;2024-01-16T11:08:57;100515.19;;;7.33;62.33
13974;BME280;7060;43.770;4.008;2024-01-16T11:11:30;100504.56;;;7.33;61.97
13974;BME280;7060;43.770;4.008;2024-01-16T11:14:03;100508.91;;;7.34;62.25
13974;BME280;7060;43.770;4.008;2024-01-16T11:16:32;100499.56;;;7.40;62.13
13974;BME280;7060;43.770;4.008;2024-01-16T11:19:01;100499.44;;;7.41;62.13
13974;BME280;7060;43.770;4.008;2024-01-16T11:21:53;100483.94;;;7.46;62.14
13974;BME280;7060;43.770;4.008;2024-01-16T11:24:23;100485.31;;;7.51;62.17
13974;BME280;7060;43.770;4.008;2024-01-16T11:26:53;100482.84;;;7.59;61.53
13974;BME280;7060;43.770;4.008;2024-01-16T11:29:35;100480.53;;;7.65;61.85
13974;BME280;7060;43.770;4.008;2024-01-16T11:32:05;100468.63;;;7.69;62.45
13974;BME280;7060;43.770;4.008;2024-01-16T11:34:53;100465.41;;;7.75;61.11
13974;BME280;7060;43.770;4.008;2024-01-16T11:37:27;100463.91;;;7.73;61.16
13974;BME280;7060;43.770;4.008;2024-01-16T11:40:22;100462.06;;;7.73;62.31
13974;BME280;7060;43.770;4.008;2024-01-16T11:42:53;100454.09;;;7.83;61.96
13974;BME280;7060;43.770;4.008;2024-01-16T11:45:48;100442.78;;;7.91;62.18
13974;BME280;7060;43.770;4.008;2024-01-16T11:48:18;100447.13;;;7.92;61.72
13974;BME280;7060;43.770;4.008;2024-01-16T11:50:48;100442.81;;;8.00;62.64
13974;BME280;7060;43.770;4.008;2024-01-16T11:53:37;100439.91;;;8.13;61.98
13974;BME280;7060;43.770;4.008;2024-01-16T12:02:12;100418.34;;;8.45;62.67
13974;BME280;7060;43.770;4.008;2024-01-16T12:04:43;100416.81;;;8.52;63.21
13974;BME280;7060;43.770;4.008;2024-01-16T12:07:20;100406.69;;;8.65;62.97
13974;BME280;7060;43.770;4.008;2024-01-16T12:09:49;100404.47;;;8.70;63.49
13974;BME280;7060;43.770;4.008;2024-01-16T12:12:18;100398.84;;;8.73;63.93
13974;BME280;7060;43.770;4.008;2024-01-16T12:14:51;100402.22;;;8.75;64.17
13974;BME280;7060;43.770;4.008;2024-01-16T12:17:22;100379.22;;;8.74;64.67
13974;BME280;7060;43.770;4.008;2024-01-16T12:19:51;100380.19;;;8.73;64.41
13974;BME280;7060;43.770;4.008;2024-01-16T12:22:20;100361.25;;;8.76;65.11
13974;BME280;7060;43.770;4.008;2024-01-16T12:24:56;100325.06;;;8.64;64.61
13974;BME280;7060;43.770;4.008;2024-01-16T12:27:26;100344.56;;;8.74;64.86
13974;BME280;7060;43.770;4.008;2024-01-16T12:30:05;100340.47;;;8.80;65.10
13974;BME280;7060;43.770;4.008;2024-01-16T12:32:36;100337.53;;;8.83;64.88
13974;BME280;7060;43.770;4.008;2024-01-16T12:35:05;100339.44;;;8.91;65.43
13974;BME280;7060;43.770;4.008;2024-01-16T12:37:35;100341.53;;;8.97;64.85
13974;BME280;7060;43.770;4.008;2024-01-16T12:40:04;100336.22;;;8.97;64.79
13974;BME280;7060;43.770;4.008;2024-01-16T12:42:36;100337.06;;;8.97;65.34
13974;BME280;7060;43.770;4.008;2024-01-16T12:45:08;100344.06;;;9.08;65.34
13974;BME280;7060;43.770;4.008;2024-01-16T12:47:39;100334.78;;;9.12;65.31
13974;BME280;7060;43.770;4.008;2024-01-16T12:50:08;100324.78;;;9.14;65.25
13974;BME280;7060;43.770;4.008;2024-01-16T12:52:38;100334.16;;;9.28;64.88
13974;BME280;7060;43.770;4.008;2024-01-16T12:55:10;100321.66;;;9.28;64.87
13974;BME280;7060;43.770;4.008;2024-01-16T12:57:39;100329.94;;;9.35;65.06
13974;BME280;7060;43.770;4.008;2024-01-16T13:00:21;100340.00;;;9.41;64.83
13974;BME280;7060;43.770;4.008;2024-01-16T13:02:52;100322.31;;;9.40;64.77
13974;BME280;7060;43.770;4.008;2024-01-16T13:05:25;100318.97;;;9.38;65.30
13974;BME280;7060;43.770;4.008;2024-01-16T13:08:00;100317.66;;;9.42;65.24
13974;BME280;7060;43.770;4.008;2024-01-16T13:10:31;100324.81;;;9.41;65.39
13974;BME280;7060;43.770;4.008;2024-01-16T13:13:13;100318.22;;;9.45;65.31
13974;BME280;7060;43.770;4.008;2024-01-16T13:15:43;100318.59;;;9.50;65.79
13974;BME280;7060;43.770;4.008;2024-01-16T13:18:20;100309.72;;;9.60;65.87
13974;BME280;7060;43.770;4.008;2024-01-16T13:20:50;100307.72;;;9.62;66.22
13974;BME280;7060;43.770;4.008;2024-01-16T13:23:20;100312.38;;;9.60;65.69
13974;BME280;7060;43.770;4.008;2024-01-16T13:25:49;100301.72;;;9.60;65.68
13974;BME280;7060;43.770;4.008;2024-01-16T13:28:18;100285.69;;;9.60;65.94
13974;BME280;7060;43.770;4.008;2024-01-16T13:30:52;100283.03;;;9.60;66.26
13974;BME280;7060;43.770;4.008;2024-01-16T13:33:24;100287.91;;;9.64;66.17
13974;BME280;7060;43.770;4.008;2024-01-16T13:35:54;100282.03;;;9.61;65.96